Time;durP1;ratioP1;P1;durP2;ratioP2;P2;SDS_P1;SDS_P2;PMS_P1;PMS_P2;Temp;Humidity;BMP_temperature;BMP_pressure;BME280_temperature;BME280_humidity;BME280_pressure;Samples;Min_cycle;Max_cycle;Signal;HPM_P1;HPM_P2
2022/01/09 00:01:44;;;;;;;2.13;1.20;;;20.70;52.80;;;;;;5035179;28;20092;-71
2022/01/09 00:04:09;;;;;;;2.13;1.05;;;20.70;53.90;;;;;;5038131;28;20025;-72
2022/01/09 00:06:35;;;;;;;1.95;0.90;;;20.70;52.90;;;;;;5055205;28;20033;-71
2022/01/09 00:09:00;;;;;;;2.90;1.23;;;20.70;52.90;;;;;;5053881;28;20087;-72
2022/01/09 00:11:26;;;;;;;2.13;1.17;;;20.70;52.90;;;;;;5040802;28;20087;-72
2022/01/09 00:13:56;;;;;;;3.13;1.00;;;20.70;53.00;;;;;;5048946;28;20108;-72
2022/01/09 00:16:21;;;;;;;2.10;1.20;;;20.70;52.90;;;;;;5052748;28;20079;-72
2022/01/09 00:18:48;;;;;;;2.17;1.20;;;20.70;52.90;;;;;;5022209;28;20018;-71
2022/01/09 00:21:13;;;;;;;2.40;1.08;;;20.70;52.90;;;;;;5034722;28;20013;-71
2022/01/09 00:23:39;;;;;;;1.65;1.05;;;20.70;53.00;;;;;;5034983;28;20048;-71
2022/01/09 00:26:06;;;;;;;2.38;0.80;;;20.70;52.90;;;;;;5035651;28;20506;-71
2022/01/09 00:28:32;;;;;;;2.90;1.15;;;20.70;52.90;;;;;;5039863;28;20495;-71
2022/01/09 00:30:57;;;;;;;2.25;1.00;;;20.80;54.00;;;;;;5050547;28;20036;-71
2022/01/09 00:33:23;;;;;;;1.60;0.80;;;20.70;52.90;;;;;;5016742;28;20025;-71
2022/01/09 00:35:49;;;;;;;1.75;0.80;;;20.70;53.00;;;;;;5034747;28;20026;-71
2022/01/09 00:38:15;;;;;;;1.63;0.80;;;20.70;52.90;;;;;;5033458;28;20089;-71
2022/01/09 00:40:41;;;;;;;1.60;0.90;;;20.70;52.90;;;;;;5034503;28;20164;-72
2022/01/09 00:43:09;;;;;;;1.63;0.70;;;20.70;52.90;;;;;;5016973;28;20017;-72
2022/01/09 00:45:35;;;;;;;1.85;1.10;;;20.80;53.00;;;;;;5033343;28;20029;-71
2022/01/09 00:48:01;;;;;;;2.15;0.98;;;20.80;53.00;;;;;;5033993;28;20061;-71
2022/01/09 00:50:26;;;;;;;1.33;0.88;;;20.80;53.00;;;;;;5033194;28;20057;-71
2022/01/09 00:52:52;;;;;;;1.67;0.95;;;20.80;53.00;;;;;;5032928;28;20026;-71
2022/01/09 00:55:18;;;;;;;1.77;1.15;;;20.80;53.00;;;;;;5034035;28;20464;-71
2022/01/09 00:57:44;;;;;;;1.55;0.77;;;20.80;53.10;;;;;;5034343;28;20010;-71
2022/01/09 01:00:10;;;;;;;1.67;0.90;;;20.80;53.00;;;;;;5034158;28;20029;-71
2022/01/09 01:02:36;;;;;;;2.00;1.00;;;20.80;53.10;;;;;;5033862;28;20097;-71
2022/01/09 01:05:03;;;;;;;1.77;1.02;;;20.80;53.00;;;;;;5032868;28;20104;-71
2022/01/09 01:07:28;;;;;;;2.20;0.80;;;20.80;53.10;;;;;;5032750;28;20499;-71
2022/01/09 01:09:57;;;;;;;1.17;0.95;;;20.80;53.10;;;;;;5034050;28;20104;-71
2022/01/09 01:12:24;;;;;;;1.70;1.23;;;20.80;53.10;;;;;;5035124;28;20021;-71
2022/01/09 01:14:50;;;;;;;1.77;1.35;;;20.80;53.10;;;;;;5038888;28;20104;-71
2022/01/09 01:17:16;;;;;;;1.98;0.80;;;20.80;53.10;;;;;;5044859;28;20056;-71
2022/01/09 01:19:41;;;;;;;2.38;0.80;;;20.80;53.10;;;;;;5053432;28;20060;-71
2022/01/09 01:22:07;;;;;;;2.20;0.93;;;20.80;53.10;;;;;;5036394;28;20032;-71
2022/01/09 01:24:36;;;;;;;2.05;0.90;;;20.80;53.10;;;;;;5048153;28;20451;-71
2022/01/09 01:27:01;;;;;;;1.55;0.88;;;20.80;53.10;;;;;;5032697;28;20511;-71
2022/01/09 01:29:27;;;;;;;1.55;0.75;;;20.80;53.20;;;;;;5033554;28;20159;-71
2022/01/09 01:31:53;;;;;;;2.65;1.30;;;20.80;53.10;;;;;;5033355;28;20034;-71
2022/01/09 01:34:18;;;;;;;2.22;1.00;;;20.80;53.20;;;;;;5032150;28;20060;-71
2022/01/09 01:36:44;;;;;;;1.30;0.80;;;20.80;53.20;;;;;;5033471;28;20051;-72
2022/01/09 01:39:10;;;;;;;1.80;0.90;;;20.80;53.20;;;;;;5032167;28;20054;-71
2022/01/09 01:41:35;;;;;;;1.50;1.00;;;20.80;53.20;;;;;;5015917;28;20488;-71
2022/01/09 01:44:01;;;;;;;1.23;0.95;;;20.80;53.20;;;;;;5033311;28;20122;-72
2022/01/09 01:46:27;;;;;;;3.13;0.88;;;20.80;53.20;;;;;;5015194;28;20034;-71
2022/01/09 01:48:52;;;;;;;1.48;0.80;;;20.80;53.20;;;;;;5031927;28;20029;-71
2022/01/09 01:51:20;;;;;;;1.80;0.88;;;20.80;53.20;;;;;;5033152;28;20492;-71
2022/01/09 01:53:45;;;;;;;1.88;1.00;;;20.80;53.20;;;;;;5032089;28;20063;-71
2022/01/09 01:56:18;;;;;;;2.00;0.98;;;20.80;53.20;;;;;;5015184;28;20073;-71
2022/01/09 01:58:44;;;;;;;1.05;0.77;;;20.80;53.20;;;;;;5031992;28;20024;-72
2022/01/09 02:01:10;;;;;;;2.13;1.10;;;20.80;53.20;;;;;;5032593;28;20391;-71
2022/01/09 02:03:35;;;;;;;1.00;0.80;;;20.80;53.20;;;;;;5031763;28;20059;-71
2022/01/09 02:06:01;;;;;;;2.22;1.00;;;20.80;53.30;;;;;;5032958;28;20033;-71
2022/01/09 02:08:27;;;;;;;2.17;0.80;;;20.80;53.30;;;;;;5031673;28;20030;-71
2022/01/09 02:10:52;;;;;;;1.85;0.90;;;20.80;53.20;;;;;;5032858;28;20067;-71
2022/01/09 02:13:19;;;;;;;1.58;0.80;;;20.80;53.30;;;;;;5032638;28;20030;-71
2022/01/09 02:15:45;;;;;;;0.88;0.60;;;20.80;53.30;;;;;;5031313;28;20041;-71
2022/01/09 02:18:16;;;;;;;1.85;0.90;;;20.80;53.30;;;;;;5041074;28;20031;-71
2022/01/09 02:20:42;;;;;;;1.58;0.70;;;20.80;53.30;;;;;;5052627;28;20013;-71
2022/01/09 02:23:08;;;;;;;0.90;0.70;;;20.80;53.30;;;;;;5052535;28;20025;-71
2022/01/09 02:25:34;;;;;;;2.05;0.82;;;20.80;53.30;;;;;;5052579;28;20013;-71
2022/01/09 02:28:00;;;;;;;1.60;0.70;;;20.80;53.30;;;;;;5051008;28;20090;-71
2022/01/09 02:30:26;;;;;;;2.47;1.00;;;20.80;53.30;;;;;;5034358;28;20017;-71
2022/01/09 02:32:51;;;;;;;3.53;1.20;;;20.80;53.40;;;;;;5052307;28;20064;-71
2022/01/09 02:35:17;;;;;;;1.30;0.90;;;20.80;53.30;;;;;;5052290;28;20028;-71
2022/01/09 02:37:43;;;;;;;2.03;1.02;;;20.80;53.40;;;;;;5050575;28;20025;-71
2022/01/09 02:40:09;;;;;;;2.17;1.05;;;20.80;53.40;;;;;;5050122;28;20108;-71
2022/01/09 02:42:34;;;;;;;1.40;0.93;;;20.80;53.40;;;;;;5017927;28;20017;-71
2022/01/09 02:45:01;;;;;;;2.30;1.08;;;20.80;53.30;;;;;;5043798;28;20033;-71
2022/01/09 02:47:29;;;;;;;2.30;1.13;;;20.80;53.40;;;;;;5030892;28;20053;-71
2022/01/09 02:49:56;;;;;;;1.67;0.80;;;20.80;53.40;;;;;;5032383;28;20026;-71
2022/01/09 02:52:35;;;;;;;2.75;0.88;;;20.80;53.40;;;;;;5032136;28;20034;-71
2022/01/09 02:55:10;;;;;;;1.02;0.60;;;20.80;53.50;;;;;;5032002;28;20019;-71
2022/01/09 02:57:37;;;;;;;1.02;0.70;;;20.80;53.50;;;;;;5032210;28;20017;-71
2022/01/09 03:00:07;;;;;;;1.88;0.82;;;20.70;53.40;;;;;;5030744;28;20014;-71
2022/01/09 03:02:33;;;;;;;1.20;0.60;;;20.80;53.50;;;;;;5030794;28;20032;-71
2022/01/09 03:04:58;;;;;;;1.67;0.70;;;20.80;53.50;;;;;;5032238;28;20033;-71
2022/01/09 03:07:24;;;;;;;0.95;0.65;;;20.80;53.60;;;;;;5031916;28;20030;-71
2022/01/09 03:09:50;;;;;;;1.25;0.60;;;20.80;53.50;;;;;;5031026;28;20036;-71
2022/01/09 03:12:15;;;;;;;1.15;0.73;;;20.80;53.50;;;;;;5032075;28;20570;-71
2022/01/09 03:14:41;;;;;;;1.05;0.68;;;20.80;53.50;;;;;;5031776;28;20084;-71
2022/01/09 03:17:06;;;;;;;1.48;0.80;;;20.80;53.50;;;;;;5032861;28;20025;-71
2022/01/09 03:19:32;;;;;;;2.03;1.05;;;20.80;53.50;;;;;;5051907;28;20025;-71
2022/01/09 03:21:58;;;;;;;1.40;0.98;;;20.80;53.50;;;;;;5034415;28;20025;-71
2022/01/09 03:24:23;;;;;;;1.73;0.88;;;20.80;53.50;;;;;;5051679;28;20487;-71
2022/01/09 03:26:49;;;;;;;1.58;0.88;;;20.80;53.50;;;;;;5051886;28;20037;-71
2022/01/09 03:29:14;;;;;;;2.40;0.90;;;20.80;53.50;;;;;;5050060;28;20082;-71
2022/01/09 03:31:40;;;;;;;1.80;0.95;;;20.70;53.40;;;;;;5051918;28;20483;-71
2022/01/09 03:34:06;;;;;;;1.73;0.85;;;20.70;53.50;;;;;;5051748;28;20032;-71
2022/01/09 03:36:31;;;;;;;1.73;1.08;;;20.80;53.50;;;;;;5034120;28;20048;-71
2022/01/09 03:38:57;;;;;;;1.33;1.00;;;20.70;53.50;;;;;;5050762;28;20021;-71
2022/01/09 03:41:22;;;;;;;2.30;0.80;;;20.80;53.60;;;;;;5050221;28;20021;-71
2022/01/09 03:43:48;;;;;;;1.35;0.68;;;20.70;53.50;;;;;;5050223;28;20112;-71
2022/01/09 03:46:14;;;;;;;1.42;0.63;;;20.70;53.50;;;;;;5051815;28;20403;-71
2022/01/09 03:48:39;;;;;;;1.67;0.70;;;20.80;53.60;;;;;;5050476;28;20033;-71
2022/01/09 03:51:05;;;;;;;1.90;0.93;;;20.80;53.50;;;;;;5055342;28;20078;-71
2022/01/09 03:53:31;;;;;;;2.08;0.73;;;20.70;53.50;;;;;;5055121;28;20021;-71
2022/01/09 03:55:57;;;;;;;1.50;0.82;;;20.80;53.60;;;;;;5046412;28;20075;-71
2022/01/09 03:58:23;;;;;;;1.48;0.90;;;20.80;53.60;;;;;;5034017;28;20376;-71
2022/01/09 04:00:48;;;;;;;2.40;0.70;;;20.70;53.50;;;;;;5034169;28;20030;-71
2022/01/09 04:03:14;;;;;;;2.22;0.70;;;20.80;53.60;;;;;;5035395;28;20037;-71
2022/01/09 04:05:40;;;;;;;2.15;0.90;;;20.70;53.60;;;;;;5035270;28;20029;-71
2022/01/09 04:08:05;;;;;;;2.15;0.85;;;20.80;53.60;;;;;;5033925;28;20027;-71
2022/01/09 04:10:33;;;;;;;1.20;0.60;;;20.80;53.70;;;;;;5034735;28;20039;-71
2022/01/09 04:13:00;;;;;;;1.25;0.80;;;20.80;53.60;;;;;;5033970;28;20144;-71
2022/01/09 04:15:26;;;;;;;1.83;0.80;;;20.80;53.70;;;;;;5033845;28;20024;-71
2022/01/09 04:17:54;;;;;;;1.25;0.75;;;20.80;53.70;;;;;;5041976;28;20021;-71
2022/01/09 04:20:20;;;;;;;1.20;0.65;;;20.80;53.70;;;;;;5037601;28;20020;-71
2022/01/09 04:22:47;;;;;;;1.60;0.80;;;20.80;53.60;;;;;;5054819;28;20029;-71
2022/01/09 04:25:13;;;;;;;1.10;0.60;;;20.80;53.70;;;;;;5054564;28;20107;-71
2022/01/09 04:27:38;;;;;;;0.85;0.63;;;20.80;53.70;;;;;;5036750;28;20120;-71
2022/01/09 04:30:05;;;;;;;2.25;0.80;;;20.80;53.70;;;;;;5036965;28;20020;-71
2022/01/09 04:32:31;;;;;;;1.30;0.52;;;20.80;53.70;;;;;;5053542;28;20100;-71
2022/01/09 04:34:56;;;;;;;1.35;0.82;;;20.80;53.70;;;;;;5053337;28;20491;-71
2022/01/09 04:37:22;;;;;;;1.35;0.75;;;20.80;54.80;;;;;;5054423;28;20025;-71
2022/01/09 04:39:50;;;;;;;1.52;0.90;;;20.80;53.70;;;;;;5053053;28;20119;-71
2022/01/09 04:42:16;;;;;;;0.90;0.60;;;20.80;53.70;;;;;;5054512;28;20023;-71
2022/01/09 04:44:42;;;;;;;0.93;0.50;;;20.80;53.80;;;;;;5036801;28;20118;-71
2022/01/09 04:47:12;;;;;;;1.17;0.65;;;20.80;53.80;;;;;;5054391;28;20040;-71
2022/01/09 04:49:41;;;;;;;0.75;0.65;;;20.80;53.80;;;;;;5052009;28;20468;-71
2022/01/09 04:52:09;;;;;;;2.13;0.77;;;20.80;53.90;;;;;;5053131;28;20025;-71
2022/01/09 04:54:34;;;;;;;1.13;0.70;;;20.80;53.80;;;;;;5052226;28;20051;-71
2022/01/09 04:57:02;;;;;;;1.60;0.60;;;20.80;53.80;;;;;;5035810;28;20057;-71
2022/01/09 04:59:28;;;;;;;0.95;0.65;;;20.80;53.80;;;;;;5034205;28;20578;-71
2022/01/09 05:01:54;;;;;;;1.20;0.52;;;20.80;53.80;;;;;;5048661;28;20025;-71
2022/01/09 05:04:19;;;;;;;1.67;0.82;;;20.80;53.80;;;;;;5052720;28;20438;-71
2022/01/09 05:06:45;;;;;;;1.88;0.68;;;20.80;53.90;;;;;;5032801;28;20480;-71
2022/01/09 05:09:11;;;;;;;1.27;0.40;;;20.80;53.80;;;;;;5033815;28;20036;-71
2022/01/09 05:11:37;;;;;;;1.23;0.70;;;20.80;53.90;;;;;;5032713;28;20037;-71
2022/01/09 05:14:03;;;;;;;3.00;0.82;;;20.80;53.90;;;;;;5033834;28;20029;-71
2022/01/09 05:16:28;;;;;;;1.58;0.70;;;20.80;54.00;;;;;;5032840;28;20022;-71
2022/01/09 05:19:01;;;;;;;1.52;0.80;;;20.80;53.90;;;;;;5049387;28;20021;-71
2022/01/09 05:21:27;;;;;;;1.80;0.70;;;20.80;54.00;;;;;;5043825;28;20025;-71
2022/01/09 05:23:53;;;;;;;0.88;0.60;;;20.80;54.00;;;;;;5045621;28;20412;-71
2022/01/09 05:26:18;;;;;;;1.60;0.50;;;20.80;54.00;;;;;;5019906;28;20419;-71
2022/01/09 05:28:44;;;;;;;0.88;0.50;;;20.80;54.00;;;;;;5048413;28;20451;-71
2022/01/09 05:31:09;;;;;;;1.17;0.63;;;20.80;54.00;;;;;;5048754;28;20119;-71
2022/01/09 05:33:35;;;;;;;0.90;0.68;;;20.80;54.00;;;;;;5043294;28;20030;-71
2022/01/09 05:36:00;;;;;;;0.88;0.55;;;20.80;54.10;;;;;;5045300;28;20025;-71
2022/01/09 05:38:26;;;;;;;1.80;0.80;;;20.80;54.10;;;;;;5034829;28;20496;-71
2022/01/09 05:40:52;;;;;;;1.17;0.77;;;20.80;54.10;;;;;;5049401;28;20484;-71
2022/01/09 05:43:18;;;;;;;1.25;0.70;;;20.80;54.10;;;;;;5040275;28;20025;-71
2022/01/09 05:45:44;;;;;;;0.70;0.50;;;20.80;54.10;;;;;;5042361;28;20474;-71
2022/01/09 05:48:10;;;;;;;0.85;0.60;;;20.80;54.10;;;;;;5047188;28;20120;-71
2022/01/09 05:50:35;;;;;;;1.92;0.70;;;20.80;54.10;;;;;;5035058;28;20026;-71
2022/01/09 05:53:01;;;;;;;1.30;0.57;;;20.80;54.10;;;;;;5046989;28;20030;-71
2022/01/09 05:55:27;;;;;;;1.05;0.65;;;20.80;54.20;;;;;;5035095;28;20096;-71
2022/01/09 05:57:52;;;;;;;2.00;0.70;;;20.80;54.20;;;;;;5044551;28;20013;-71
2022/01/09 06:00:18;;;;;;;1.58;0.60;;;20.80;54.20;;;;;;5037478;28;20064;-71
2022/01/09 06:02:43;;;;;;;0.82;0.50;;;20.80;54.20;;;;;;5049057;28;20451;-71
2022/01/09 06:05:09;;;;;;;1.50;0.50;;;20.80;54.20;;;;;;5037395;28;20083;-71
2022/01/09 06:07:39;;;;;;;1.15;0.70;;;20.80;54.20;;;;;;5041859;28;20049;-71
2022/01/09 06:10:05;;;;;;;1.00;0.57;;;20.80;54.20;;;;;;5028418;28;20070;-71
2022/01/09 06:12:31;;;;;;;0.55;0.47;;;20.80;54.20;;;;;;5018263;28;20400;-71
2022/01/09 06:14:56;;;;;;;0.75;0.50;;;20.80;54.20;;;;;;5047601;28;20029;-71
2022/01/09 06:17:22;;;;;;;0.93;0.68;;;20.80;54.20;;;;;;5036686;28;20021;-71
2022/01/09 06:19:47;;;;;;;0.80;0.55;;;20.80;54.60;;;;;;5042095;28;20443;-71
2022/01/09 06:22:18;;;;;;;0.77;0.50;;;20.80;54.30;;;;;;5052348;28;20020;-71
2022/01/09 06:24:47;;;;;;;0.90;0.68;;;20.80;54.30;;;;;;5051217;28;20086;-71
2022/01/09 06:27:13;;;;;;;1.00;0.40;;;20.80;54.30;;;;;;5044283;28;20045;-71
2022/01/09 06:29:39;;;;;;;1.10;0.63;;;20.80;54.30;;;;;;5042343;28;20021;-71
2022/01/09 06:32:05;;;;;;;0.80;0.40;;;20.80;54.30;;;;;;5039148;28;20052;-71
2022/01/09 06:34:31;;;;;;;1.20;0.70;;;20.80;54.30;;;;;;5022547;28;20033;-71
2022/01/09 06:36:57;;;;;;;0.65;0.57;;;20.80;54.30;;;;;;5041990;28;20016;-71
2022/01/09 06:39:22;;;;;;;1.10;0.55;;;20.80;54.30;;;;;;5042229;28;20032;-71
2022/01/09 06:41:48;;;;;;;1.10;0.60;;;20.80;54.30;;;;;;5040079;28;20028;-71
2022/01/09 06:44:14;;;;;;;1.38;0.50;;;20.80;54.40;;;;;;5022437;28;20411;-71
2022/01/09 06:46:39;;;;;;;2.50;0.60;;;20.80;54.40;;;;;;5040737;28;20018;-71
2022/01/09 06:49:05;;;;;;;4.70;0.50;;;20.80;54.40;;;;;;5043478;28;20036;-71
2022/01/09 06:51:30;;;;;;;2.67;0.50;;;20.80;54.40;;;;;;5041961;28;20029;-71
2022/01/09 06:53:56;;;;;;;1.77;0.80;;;20.80;54.40;;;;;;5038871;28;20033;-71
2022/01/09 06:56:22;;;;;;;1.42;0.80;;;20.80;54.40;;;;;;5040740;28;20380;-71
2022/01/09 06:58:47;;;;;;;1.48;0.70;;;20.80;54.50;;;;;;5040096;28;20036;-71
2022/01/09 07:01:13;;;;;;;0.77;0.63;;;20.80;54.50;;;;;;5040061;28;20022;-71
2022/01/09 07:03:39;;;;;;;1.65;0.63;;;20.70;54.50;;;;;;5040054;28;20056;-71
2022/01/09 07:06:04;;;;;;;0.65;0.45;;;20.70;54.50;;;;;;5041748;28;20437;-71
2022/01/09 07:08:33;;;;;;;1.45;0.98;;;20.80;54.50;;;;;;5043386;28;20036;-71
2022/01/09 07:10:59;;;;;;;0.95;0.43;;;20.70;54.50;;;;;;5040147;28;20013;-71
2022/01/09 07:13:25;;;;;;;1.83;0.70;;;20.80;54.60;;;;;;5038670;28;20036;-71
2022/01/09 07:15:51;;;;;;;1.05;0.70;;;20.80;54.60;;;;;;5041104;28;20013;-71
2022/01/09 07:18:16;;;;;;;1.15;0.65;;;20.80;54.60;;;;;;5047990;28;20036;-71
2022/01/09 07:20:42;;;;;;;0.98;0.60;;;20.70;54.50;;;;;;5042222;28;20020;-71
2022/01/09 07:23:07;;;;;;;1.45;0.70;;;20.70;54.50;;;;;;5022334;28;20472;-71
2022/01/09 07:25:33;;;;;;;0.95;0.63;;;20.70;54.50;;;;;;5035115;28;20026;-71
2022/01/09 07:27:59;;;;;;;1.10;0.57;;;20.70;54.50;;;;;;5035687;28;20045;-71
2022/01/09 07:30:27;;;;;;;1.50;0.70;;;20.70;54.50;;;;;;5035974;28;20026;-71
2022/01/09 07:32:53;;;;;;;1.85;0.70;;;20.70;54.60;;;;;;5034736;28;20357;-71
2022/01/09 07:35:19;;;;;;;0.80;0.50;;;20.80;54.70;;;;;;5035634;28;20032;-71
2022/01/09 07:37:45;;;;;;;2.05;0.88;;;20.70;54.60;;;;;;5035730;28;20026;-71
2022/01/09 07:40:11;;;;;;;0.93;0.60;;;20.70;54.60;;;;;;5035781;28;20022;-71
2022/01/09 07:42:37;;;;;;;2.17;0.60;;;20.70;54.60;;;;;;5035538;28;20422;-71
2022/01/09 07:45:06;;;;;;;1.60;0.50;;;20.70;55.60;;;;;;5035694;28;20082;-71
2022/01/09 07:47:35;;;;;;;1.30;0.63;;;20.80;54.70;;;;;;5035601;28;20468;-71
2022/01/09 07:50:01;;;;;;;2.22;0.63;;;20.80;54.70;;;;;;5035084;28;20017;-71
2022/01/09 07:52:26;;;;;;;0.88;0.50;;;20.80;54.70;;;;;;5034412;28;20025;-71
2022/01/09 07:54:52;;;;;;;0.82;0.43;;;20.80;54.80;;;;;;5035233;28;20037;-71
2022/01/09 07:57:18;;;;;;;1.70;0.75;;;20.80;54.70;;;;;;5017556;28;20026;-71
2022/01/09 07:59:44;;;;;;;0.98;0.63;;;20.80;55.80;;;;;;5034209;28;20026;-71
2022/01/09 08:02:09;;;;;;;1.27;0.70;;;20.80;54.80;;;;;;5038749;28;20387;-71
2022/01/09 08:04:35;;;;;;;2.67;0.60;;;20.80;54.80;;;;;;5046369;28;20495;-71
2022/01/09 08:07:01;;;;;;;1.15;0.68;;;20.80;54.80;;;;;;5044238;28;20025;-71
2022/01/09 08:09:27;;;;;;;1.45;0.60;;;20.80;54.80;;;;;;5039583;28;20025;-71
2022/01/09 08:11:52;;;;;;;1.00;0.60;;;20.80;54.80;;;;;;5051063;28;20029;-71
2022/01/09 08:14:18;;;;;;;1.52;0.65;;;20.80;54.80;;;;;;5038310;28;20518;-71
2022/01/09 08:16:44;;;;;;;2.60;1.02;;;20.80;54.80;;;;;;5046443;28;20017;-71
2022/01/09 08:19:09;;;;;;;1.15;0.73;;;20.80;54.90;;;;;;5033808;28;20071;-71
2022/01/09 08:21:35;;;;;;;1.27;0.70;;;20.80;54.90;;;;;;5053581;28;20056;-71
2022/01/09 08:24:00;;;;;;;0.88;0.55;;;20.80;55.90;;;;;;5054701;28;20025;-71
2022/01/09 08:26:26;;;;;;;1.48;0.77;;;20.80;54.90;;;;;;5054754;28;20056;-71
2022/01/09 08:28:53;;;;;;;1.40;0.75;;;20.70;54.90;;;;;;5054010;28;20025;-71
2022/01/09 08:31:19;;;;;;;0.82;0.50;;;20.80;54.90;;;;;;5041830;28;20442;-72
2022/01/09 08:33:45;;;;;;;2.22;0.70;;;20.80;54.90;;;;;;5049067;28;20032;-71
2022/01/09 08:36:11;;;;;;;1.58;0.68;;;20.70;54.90;;;;;;5035493;28;20476;-71
2022/01/09 08:38:36;;;;;;;1.27;0.70;;;20.70;54.90;;;;;;5046318;28;20080;-71
2022/01/09 08:41:02;;;;;;;0.90;0.50;;;20.80;55.00;;;;;;5026902;28;20029;-72
2022/01/09 08:43:29;;;;;;;0.90;0.70;;;20.80;55.00;;;;;;5040554;28;20087;-71
2022/01/09 08:45:54;;;;;;;1.38;0.50;;;20.80;55.00;;;;;;5032726;28;20029;-71
2022/01/09 08:48:20;;;;;;;1.00;0.50;;;20.80;55.00;;;;;;5038371;28;20074;-71
2022/01/09 08:50:46;;;;;;;0.95;0.60;;;20.80;55.00;;;;;;5046271;28;20029;-71
2022/01/09 08:53:11;;;;;;;3.03;0.73;;;20.80;55.00;;;;;;5045316;28;20025;-71
2022/01/09 08:55:37;;;;;;;2.28;0.50;;;20.70;55.00;;;;;;5045000;28;20107;-71
2022/01/09 08:58:03;;;;;;;1.70;0.80;;;20.80;55.10;;;;;;5038652;28;20024;-71
2022/01/09 09:00:28;;;;;;;0.98;0.60;;;20.80;55.10;;;;;;5048277;28;20100;-71
2022/01/09 09:02:54;;;;;;;4.65;0.70;;;20.70;55.00;;;;;;5041504;28;20020;-71
2022/01/09 09:05:20;;;;;;;1.45;0.68;;;20.80;55.00;;;;;;5024021;28;20029;-71
2022/01/09 09:07:47;;;;;;;0.95;0.40;;;20.80;55.10;;;;;;5048573;28;20113;-71
2022/01/09 09:10:13;;;;;;;1.27;0.50;;;20.80;55.10;;;;;;5035667;28;20036;-71
2022/01/09 09:12:39;;;;;;;1.33;0.65;;;20.80;55.10;;;;;;5047261;28;20017;-72
2022/01/09 09:15:05;;;;;;;0.93;0.60;;;20.80;55.10;;;;;;5042985;28;20039;-71
2022/01/09 09:17:31;;;;;;;0.50;0.50;;;20.70;55.20;;;;;;5026707;28;20017;-71
2022/01/09 09:19:57;;;;;;;1.95;1.13;;;20.80;55.20;;;;;;5051043;28;20120;-72
2022/01/09 09:22:23;;;;;;;1.38;0.70;;;20.80;55.20;;;;;;5036551;28;20048;-71
2022/01/09 09:24:49;;;;;;;2.45;0.60;;;20.70;55.10;;;;;;5052446;28;20151;-71
2022/01/09 09:27:14;;;;;;;2.25;0.80;;;20.70;55.10;;;;;;5052156;28;20119;-71
2022/01/09 09:29:40;;;;;;;0.93;0.57;;;20.70;55.10;;;;;;5052393;28;20032;-71
2022/01/09 09:32:06;;;;;;;1.15;0.60;;;20.70;55.10;;;;;;5053338;28;20514;-71
2022/01/09 09:34:32;;;;;;;2.05;0.70;;;20.70;55.20;;;;;;5052354;28;20056;-71
2022/01/09 09:36:57;;;;;;;1.15;0.50;;;20.80;55.30;;;;;;5052155;28;20515;-71
2022/01/09 09:39:23;;;;;;;0.80;0.65;;;20.80;55.20;;;;;;5053329;28;20028;-71
2022/01/09 09:41:50;;;;;;;1.20;0.57;;;20.70;55.20;;;;;;5052268;28;20021;-71
2022/01/09 09:44:16;;;;;;;0.75;0.40;;;20.70;55.20;;;;;;5035429;28;20403;-71
2022/01/09 09:46:45;;;;;;;2.05;0.73;;;20.70;55.20;;;;;;5052939;28;20021;-71
2022/01/09 09:49:11;;;;;;;2.15;0.80;;;20.70;55.20;;;;;;5019401;28;20063;-71
2022/01/09 09:51:36;;;;;;;2.30;0.70;;;20.70;55.20;;;;;;5053162;28;20479;-71
2022/01/09 09:54:02;;;;;;;0.82;0.60;;;20.70;55.20;;;;;;5051791;28;20124;-71
2022/01/09 09:56:28;;;;;;;1.13;0.60;;;20.80;55.30;;;;;;5022551;28;20026;-71
2022/01/09 09:58:57;;;;;;;1.48;0.60;;;20.70;55.20;;;;;;5042230;28;20032;-71
2022/01/09 10:01:33;;;;;;;1.92;0.57;;;20.70;55.20;;;;;;5035341;28;20543;-71
2022/01/09 10:04:01;;;;;;;2.45;0.88;;;20.80;55.30;;;;;;5018103;28;20399;-71
2022/01/09 10:06:44;;;;;;;0.73;0.60;;;20.70;55.20;;;;;;5050763;28;20025;-71
2022/01/09 10:09:14;;;;;;;1.38;0.73;;;20.70;55.20;;;;;;5052593;28;20108;-71
2022/01/09 10:11:51;;;;;;;0.95;0.55;;;20.80;55.30;;;;;;5051528;28;20151;-71
2022/01/09 10:14:36;;;;;;;1.98;0.65;;;20.70;55.30;;;;;;5052215;28;20032;-71
2022/01/09 10:17:21;;;;;;;1.27;0.70;;;20.80;55.30;;;;;;5052147;28;20083;-71
2022/01/09 10:19:54;;;;;;;1.10;0.68;;;20.70;55.30;;;;;;5032911;28;20021;-71
2022/01/09 10:22:26;;;;;;;0.77;0.52;;;20.70;55.40;;;;;;5031545;28;20070;-71
2022/01/09 10:24:52;;;;;;;1.55;0.60;;;20.80;55.40;;;;;;5031759;28;20025;-71
2022/01/09 10:27:34;;;;;;;0.95;0.57;;;20.70;55.40;;;;;;5031343;28;20044;-71
2022/01/09 10:30:00;;;;;;;1.23;0.60;;;20.70;55.30;;;;;;5031178;28;20104;-71
2022/01/09 10:32:27;;;;;;;1.65;0.70;;;20.70;55.40;;;;;;5031493;28;20021;-71
2022/01/09 10:35:15;;;;;;;0.90;0.50;;;20.70;55.40;;;;;;5031413;28;20033;-71
2022/01/09 10:37:46;;;;;;;0.70;0.60;;;20.70;55.30;;;;;;5031443;28;20024;-71
2022/01/09 10:40:19;;;;;;;1.48;0.65;;;20.70;55.40;;;;;;5031150;28;20488;-71
2022/01/09 10:42:45;;;;;;;;;;;20.70;55.40;;;;;;5031435;28;20013;-71
2022/01/09 10:45:20;;;;;;;1.80;0.70;;;20.60;55.40;;;;;;5047530;28;20004;-71
2022/01/09 10:47:45;;;;;;;1.45;0.65;;;20.70;55.70;;;;;;5032398;28;20033;-71
2022/01/09 10:50:25;;;;;;;1.85;0.70;;;20.60;55.60;;;;;;5031226;28;20074;-71
2022/01/09 10:52:51;;;;;;;1.15;0.57;;;20.70;55.50;;;;;;5031266;28;20056;-71
2022/01/09 10:55:17;;;;;;;0.60;0.50;;;20.70;55.60;;;;;;5033430;28;20068;-71
2022/01/09 10:57:42;;;;;;;1.50;0.60;;;20.70;55.60;;;;;;5049649;28;20029;-71
2022/01/09 11:00:10;;;;;;;0.68;0.57;;;20.70;55.60;;;;;;5030383;28;20021;-71
2022/01/09 11:02:36;;;;;;;0.82;0.50;;;20.70;55.50;;;;;;5048807;28;20017;-71
2022/01/09 11:05:02;;;;;;;1.58;0.70;;;20.70;55.60;;;;;;5049564;28;20028;-71
2022/01/09 11:07:27;;;;;;;0.70;0.50;;;20.70;55.60;;;;;;5049956;28;20047;-71
2022/01/09 11:09:54;;;;;;;2.50;0.70;;;20.70;55.60;;;;;;5031901;28;20028;-71
2022/01/09 11:12:21;;;;;;;0.70;0.50;;;20.70;55.60;;;;;;5047661;28;20522;-71
2022/01/09 11:14:48;;;;;;;1.25;0.75;;;20.70;55.60;;;;;;5032256;28;20024;-71
2022/01/09 11:17:13;;;;;;;2.17;0.70;;;20.70;55.50;;;;;;5046607;28;20082;-71
2022/01/09 11:19:39;;;;;;;0.95;0.63;;;20.80;55.60;;;;;;5030075;28;20104;-71
2022/01/09 11:22:06;;;;;;;1.00;0.85;;;20.70;55.50;;;;;;5030139;28;20034;-71
2022/01/09 11:24:44;;;;;;;1.20;0.68;;;20.70;55.30;;;;;;5030266;28;20025;-71
2022/01/09 11:27:34;;;;;;;0.75;0.50;;;20.70;55.10;;;;;;5044184;28;20128;-70
2022/01/09 11:30:15;;;;;;;0.95;0.70;;;20.70;55.30;;;;;;5033650;28;20029;-70
2022/01/09 11:32:56;;;;;;;1.33;0.77;;;20.70;55.60;;;;;;5017812;28;20028;-70
2022/01/09 11:35:43;;;;;;;0.88;0.60;;;20.70;55.80;;;;;;5041831;28;20091;-70
2022/01/09 11:38:46;;;;;;;1.00;0.50;;;20.70;55.90;;;;;;5047876;28;20445;-70
2022/01/09 11:41:25;;;;;;;0.82;0.50;;;20.70;55.70;;;;;;5041906;28;20056;-71
2022/01/09 11:43:58;;;;;;;1.27;0.77;;;20.70;55.80;;;;;;5053173;28;20077;-71
2022/01/09 11:46:24;;;;;;;;;;;20.70;55.80;;;;;;5049855;28;20521;-71
2022/01/09 11:48:52;;;;;;;1.40;0.70;;;20.70;55.70;;;;;;5051648;28;19905;-71
2022/01/09 11:51:19;;;;;;;1.08;0.50;;;20.70;55.90;;;;;;5049220;28;20033;-70
2022/01/09 11:54:05;;;;;;;0.95;0.57;;;20.80;55.90;;;;;;5036041;28;20040;-70
2022/01/09 11:56:47;;;;;;;0.57;0.50;;;20.90;56.00;;;;;;5033385;28;20541;-70
2022/01/09 11:59:21;;;;;;;0.83;0.60;;;20.90;56.00;;;;;;5051032;28;20025;-70
2022/01/09 12:01:48;;;;;;;1.08;0.60;;;20.90;55.90;;;;;;5052808;28;20112;-70
2022/01/09 12:04:41;;;;;;;1.15;0.63;;;20.90;55.90;;;;;;5041073;28;20026;-71
2022/01/09 12:07:08;;;;;;;1.75;0.65;;;21.00;55.70;;;;;;5034894;28;20039;-70
2022/01/09 12:09:47;;;;;;;3.90;0.80;;;21.00;55.90;;;;;;5051389;28;20109;-70
2022/01/09 12:12:20;;;;;;;1.25;0.60;;;21.00;55.70;;;;;;5036667;28;20082;-70
2022/01/09 12:14:54;;;;;;;0.70;0.60;;;21.00;55.80;;;;;;5038820;28;20056;-70
2022/01/09 12:17:26;;;;;;;0.50;0.50;;;21.10;55.70;;;;;;5052514;28;20029;-71
2022/01/09 12:20:12;;;;;;;1.13;0.52;;;21.10;55.80;;;;;;5044421;28;20068;-71
2022/01/09 12:22:45;;;;;;;1.20;0.70;;;21.20;55.60;;;;;;5051107;28;20017;-70
2022/01/09 12:25:25;;;;;;;0.95;0.52;;;21.20;55.70;;;;;;5046463;28;20075;-71
2022/01/09 12:28:10;;;;;;;1.15;0.70;;;21.20;55.50;;;;;;5054608;28;20496;-71
2022/01/09 12:30:40;;;;;;;0.90;0.70;;;21.30;55.50;;;;;;5050179;28;20140;-70
2022/01/09 12:33:15;;;;;;;0.60;0.50;;;21.20;55.60;;;;;;5042086;28;20103;-70
2022/01/09 12:35:55;;;;;;;0.70;0.50;;;21.20;55.60;;;;;;5052863;28;20051;-71
2022/01/09 12:38:22;;;;;;;0.88;0.65;;;21.30;55.60;;;;;;5035627;28;20017;-70
2022/01/09 12:40:49;;;;;;;0.70;0.55;;;21.30;55.60;;;;;;5034767;28;20021;-71
2022/01/09 12:43:18;;;;;;;0.68;0.52;;;21.30;55.50;;;;;;5041419;28;20025;-71
2022/01/09 12:45:44;;;;;;;0.95;0.60;;;21.30;55.50;;;;;;5035312;28;20029;-71
2022/01/09 12:48:18;;;;;;;1.67;0.45;;;21.30;55.50;;;;;;5041738;28;20028;-71
2022/01/09 12:50:45;;;;;;;1.73;0.80;;;21.40;55.40;;;;;;5052408;28;20113;-70